Página principal
METAR-TAF:

METAR-TAF

Aeroportos :

Aeroporto Internacional de Puerto Suárez

Puerto Suárez, Bolívia

latitude: 18-59S, longitude: 057-49W, altura: 134 m

Observação actual do tempo

O boletim foi feito há 21 minutos, às 14:00 UTC
Vento calmo
Temperatura 32°C
Humidade 59%
Pressão 1017 hPa
Visibilidade 10 km ou mais

METAR: SLPS 261400Z 00000KT 9999 NSC 32/23 Q1017

Hora: 10:21 (14:21 UTC)


TAF: em falta

Observações e previsões do tempo de mais de 4000 aeroportos (mensagens METAR e TAF).

As estações disponíveis são os pontos amarelos e vermelhos sobre o mapa.

Mova o rato sobre o mapa para ver o nome da estação.

Depois clique no ponto para visualizar as observações e previsões meteorológicas.

Para alterar o mapa : clique nos botões verdes com uma cruz preta para aumentar o zoom; no botão verde com uma pitada de zoom; ou nas setas verdes para mapas adjacentes.


METAR-TAF: